Kezdőlap
METAR-TAF:

METAR-TAF

Repülőterek :

Auburn/Lewiston Municipal Airport

Auburn-Lewiston, Maine, Amerikai Egyesült Államok

földrajzi szélesség: 44-03N, földrajzi hosszúság: 070-17W, magasság: 88 m

Jelenlegi meteorológiai megfigyelések

A jelentés 4 perccel ezelõtt készült, 00:06 UTC
Különbözõ irányokból fújó szél 3 kt
Hőmérséklet -10°C
Páratartalom 79%
Légköri nyomás 1021 hPa
Látótávolság: 2.4 km
Szakadozott felhőzet 1700 lábon
Borult 2300 lábon
enyhe havazás

METAR: KLEW 190006Z AUTO VRB03KT 1 1/2SM -SN BKN017 OVC023 M10/M13 A3014 RMK AO2 P0000 FZRANO

Idő: 19:10 (00:10 UTC)


TAF: hiányzik

Meteorológiai megfigyelések és előrejelzések több, mint 4000 repülőtéren (METAR és TAF jelentéseket).

A térképen piros és sárga pontok jelzik az elérhető meteorológiai állomásokat.

Mozgassa az egeret a pont fölött, hogy megjelenjen az állomás neve.

Azután kattintson az időjárási megfigyelések és előrejelzések megtekintéséhez.

A térkép megváltoztatása: kattintson a fekete keresztel jelölt zöld gombra ráközelítéshez, a vonallal jelölt zöld gombra távolításhoz, vagy a zöld nyilakra a szomszédos térképek eléréséhez.


METAR-TAF: